sensor_id;sensor_type;location;lat;lon;timestamp;P1;durP1;ratioP1;P2;durP2;ratioP2
48524;SDS011;34316;51.514;-0.178;2023-11-21T00:01:54;41.15;;;28.75;;
48524;SDS011;34316;51.514;-0.178;2023-11-21T00:03:56;41.45;;;26.30;;
48524;SDS011;34316;51.514;-0.178;2023-11-21T00:05:57;39.90;;;26.52;;
48524;SDS011;34316;51.514;-0.178;2023-11-21T00:07:59;40.75;;;26.67;;
48524;SDS011;34316;51.514;-0.178;2023-11-21T00:10:01;41.10;;;28.98;;
48524;SDS011;34316;51.514;-0.178;2023-11-21T00:12:04;41.33;;;27.70;;
48524;SDS011;34316;51.514;-0.178;2023-11-21T00:14:06;37.65;;;26.08;;
48524;SDS011;34316;51.514;-0.178;2023-11-21T00:16:07;41.03;;;26.15;;
48524;SDS011;34316;51.514;-0.178;2023-11-21T00:18:10;41.80;;;27.60;;
48524;SDS011;34316;51.514;-0.178;2023-11-21T00:20:12;46.10;;;28.90;;
48524;SDS011;34316;51.514;-0.178;2023-11-21T00:22:15;47.08;;;30.23;;
48524;SDS011;34316;51.514;-0.178;2023-11-21T00:24:17;45.90;;;29.75;;
48524;SDS011;34316;51.514;-0.178;2023-11-21T00:26:19;40.95;;;28.42;;
48524;SDS011;34316;51.514;-0.178;2023-11-21T00:28:21;42.33;;;27.33;;
48524;SDS011;34316;51.514;-0.178;2023-11-21T00:30:23;41.33;;;28.30;;
48524;SDS011;34316;51.514;-0.178;2023-11-21T00:32:25;44.15;;;29.30;;
48524;SDS011;34316;51.514;-0.178;2023-11-21T00:34:28;46.05;;;29.40;;
48524;SDS011;34316;51.514;-0.178;2023-11-21T00:36:33;40.60;;;28.02;;
48524;SDS011;34316;51.514;-0.178;2023-11-21T00:38:35;40.50;;;26.90;;
48524;SDS011;34316;51.514;-0.178;2023-11-21T00:42:41;39.80;;;24.92;;
48524;SDS011;34316;51.514;-0.178;2023-11-21T00:44:43;38.83;;;24.42;;
48524;SDS011;34316;51.514;-0.178;2023-11-21T00:46:45;34.38;;;24.13;;
48524;SDS011;34316;51.514;-0.178;2023-11-21T00:48:46;35.78;;;23.20;;
48524;SDS011;34316;51.514;-0.178;2023-11-21T00:50:48;36.72;;;24.20;;
48524;SDS011;34316;51.514;-0.178;2023-11-21T00:52:51;33.45;;;23.02;;
48524;SDS011;34316;51.514;-0.178;2023-11-21T00:54:53;36.13;;;24.13;;
48524;SDS011;34316;51.514;-0.178;2023-11-21T00:56:55;33.75;;;22.92;;
48524;SDS011;34316;51.514;-0.178;2023-11-21T00:58:56;35.30;;;22.90;;
48524;SDS011;34316;51.514;-0.178;2023-11-21T01:00:58;36.58;;;23.27;;
48524;SDS011;34316;51.514;-0.178;2023-11-21T01:03:00;37.80;;;24.98;;
48524;SDS011;34316;51.514;-0.178;2023-11-21T01:05:02;36.60;;;23.85;;
48524;SDS011;34316;51.514;-0.178;2023-11-21T01:07:05;37.30;;;26.10;;
48524;SDS011;34316;51.514;-0.178;2023-11-21T01:09:07;37.72;;;26.55;;
48524;SDS011;34316;51.514;-0.178;2023-11-21T01:11:11;40.60;;;27.30;;
48524;SDS011;34316;51.514;-0.178;2023-11-21T01:13:14;36.45;;;24.85;;
48524;SDS011;34316;51.514;-0.178;2023-11-21T01:15:16;40.95;;;25.90;;
48524;SDS011;34316;51.514;-0.178;2023-11-21T01:17:18;41.42;;;27.60;;
48524;SDS011;34316;51.514;-0.178;2023-11-21T01:19:20;37.90;;;25.85;;
48524;SDS011;34316;51.514;-0.178;2023-11-21T01:21:22;36.88;;;26.13;;
48524;SDS011;34316;51.514;-0.178;2023-11-21T01:23:24;38.47;;;26.65;;
48524;SDS011;34316;51.514;-0.178;2023-11-21T01:25:26;37.05;;;27.23;;
48524;SDS011;34316;51.514;-0.178;2023-11-21T01:27:27;40.30;;;28.25;;
48524;SDS011;34316;51.514;-0.178;2023-11-21T01:29:29;43.75;;;28.35;;
48524;SDS011;34316;51.514;-0.178;2023-11-21T01:31:31;41.70;;;28.95;;
48524;SDS011;34316;51.514;-0.178;2023-11-21T01:33:33;45.25;;;29.40;;
48524;SDS011;34316;51.514;-0.178;2023-11-21T01:35:35;41.97;;;26.77;;
48524;SDS011;34316;51.514;-0.178;2023-11-21T01:37:37;42.50;;;27.73;;
48524;SDS011;34316;51.514;-0.178;2023-11-21T01:39:40;38.30;;;26.90;;
48524;SDS011;34316;51.514;-0.178;2023-11-21T01:41:42;41.15;;;26.70;;
48524;SDS011;34316;51.514;-0.178;2023-11-21T01:43:45;43.33;;;27.73;;
48524;SDS011;34316;51.514;-0.178;2023-11-21T01:45:47;38.17;;;26.75;;
48524;SDS011;34316;51.514;-0.178;2023-11-21T01:47:49;36.83;;;25.95;;
48524;SDS011;34316;51.514;-0.178;2023-11-21T01:49:52;35.10;;;25.40;;
48524;SDS011;34316;51.514;-0.178;2023-11-21T01:51:54;38.67;;;25.85;;
48524;SDS011;34316;51.514;-0.178;2023-11-21T01:53:56;38.08;;;25.20;;
48524;SDS011;34316;51.514;-0.178;2023-11-21T01:55:58;39.08;;;27.13;;
48524;SDS011;34316;51.514;-0.178;2023-11-21T01:58:01;37.70;;;26.92;;
48524;SDS011;34316;51.514;-0.178;2023-11-21T02:00:03;41.33;;;27.63;;
48524;SDS011;34316;51.514;-0.178;2023-11-21T02:02:17;37.65;;;26.23;;
48524;SDS011;34316;51.514;-0.178;2023-11-21T02:04:18;42.58;;;28.13;;
48524;SDS011;34316;51.514;-0.178;2023-11-21T02:06:21;39.20;;;27.65;;
48524;SDS011;34316;51.514;-0.178;2023-11-21T02:08:23;39.63;;;27.02;;
48524;SDS011;34316;51.514;-0.178;2023-11-21T02:10:25;39.47;;;26.38;;
48524;SDS011;34316;51.514;-0.178;2023-11-21T02:12:27;34.95;;;25.23;;
48524;SDS011;34316;51.514;-0.178;2023-11-21T02:14:30;37.25;;;27.45;;
48524;SDS011;34316;51.514;-0.178;2023-11-21T02:16:32;38.05;;;27.10;;
48524;SDS011;34316;51.514;-0.178;2023-11-21T02:18:35;38.20;;;25.25;;
48524;SDS011;34316;51.514;-0.178;2023-11-21T02:20:38;39.70;;;26.17;;
48524;SDS011;34316;51.514;-0.178;2023-11-21T02:22:50;34.63;;;25.23;;
48524;SDS011;34316;51.514;-0.178;2023-11-21T02:25:00;36.75;;;25.75;;
48524;SDS011;34316;51.514;-0.178;2023-11-21T02:27:02;39.58;;;27.15;;
48524;SDS011;34316;51.514;-0.178;2023-11-21T02:29:04;41.03;;;26.10;;
48524;SDS011;34316;51.514;-0.178;2023-11-21T02:31:06;41.42;;;26.40;;
48524;SDS011;34316;51.514;-0.178;2023-11-21T02:33:09;41.83;;;27.60;;
48524;SDS011;34316;51.514;-0.178;2023-11-21T02:35:11;43.50;;;26.65;;
48524;SDS011;34316;51.514;-0.178;2023-11-21T02:37:13;35.67;;;25.60;;
48524;SDS011;34316;51.514;-0.178;2023-11-21T02:39:15;38.13;;;25.42;;
48524;SDS011;34316;51.514;-0.178;2023-11-21T02:41:17;38.33;;;26.25;;
48524;SDS011;34316;51.514;-0.178;2023-11-21T02:43:19;38.38;;;25.48;;
48524;SDS011;34316;51.514;-0.178;2023-11-21T02:45:21;33.67;;;24.70;;
48524;SDS011;34316;51.514;-0.178;2023-11-21T02:47:23;34.88;;;24.38;;
48524;SDS011;34316;51.514;-0.178;2023-11-21T02:49:25;37.83;;;25.42;;
48524;SDS011;34316;51.514;-0.178;2023-11-21T02:51:30;38.72;;;25.10;;
48524;SDS011;34316;51.514;-0.178;2023-11-21T02:53:31;39.33;;;25.40;;
48524;SDS011;34316;51.514;-0.178;2023-11-21T02:55:33;35.45;;;24.40;;
48524;SDS011;34316;51.514;-0.178;2023-11-21T02:57:38;35.58;;;24.20;;
48524;SDS011;34316;51.514;-0.178;2023-11-21T02:59:40;35.95;;;24.83;;
48524;SDS011;34316;51.514;-0.178;2023-11-21T03:01:41;40.78;;;25.92;;
48524;SDS011;34316;51.514;-0.178;2023-11-21T03:03:43;37.72;;;25.58;;
48524;SDS011;34316;51.514;-0.178;2023-11-21T03:05:45;38.45;;;25.40;;
48524;SDS011;34316;51.514;-0.178;2023-11-21T03:07:47;35.28;;;24.27;;
48524;SDS011;34316;51.514;-0.178;2023-11-21T03:09:49;37.97;;;24.08;;
48524;SDS011;34316;51.514;-0.178;2023-11-21T03:11:51;39.15;;;25.13;;
48524;SDS011;34316;51.514;-0.178;2023-11-21T03:13:53;34.03;;;24.27;;
48524;SDS011;34316;51.514;-0.178;2023-11-21T03:15:54;39.25;;;26.80;;
48524;SDS011;34316;51.514;-0.178;2023-11-21T03:17:57;39.70;;;26.08;;
48524;SDS011;34316;51.514;-0.178;2023-11-21T03:19:59;40.83;;;27.05;;
48524;SDS011;34316;51.514;-0.178;2023-11-21T03:22:01;41.90;;;28.10;;
48524;SDS011;34316;51.514;-0.178;2023-11-21T03:24:03;41.15;;;28.00;;
48524;SDS011;34316;51.514;-0.178;2023-11-21T03:26:05;42.50;;;29.27;;
48524;SDS011;34316;51.514;-0.178;2023-11-21T03:28:09;40.03;;;27.02;;
48524;SDS011;34316;51.514;-0.178;2023-11-21T03:30:11;41.08;;;27.17;;
48524;SDS011;34316;51.514;-0.178;2023-11-21T03:32:13;40.90;;;27.35;;
48524;SDS011;34316;51.514;-0.178;2023-11-21T03:34:25;37.63;;;26.27;;
48524;SDS011;34316;51.514;-0.178;2023-11-21T03:36:28;39.75;;;24.92;;
48524;SDS011;34316;51.514;-0.178;2023-11-21T03:38:30;41.58;;;27.38;;
48524;SDS011;34316;51.514;-0.178;2023-11-21T03:40:32;44.38;;;28.23;;
48524;SDS011;34316;51.514;-0.178;2023-11-21T03:42:34;38.97;;;26.33;;
48524;SDS011;34316;51.514;-0.178;2023-11-21T03:44:36;39.65;;;25.17;;
48524;SDS011;34316;51.514;-0.178;2023-11-21T03:46:37;42.00;;;26.15;;
48524;SDS011;34316;51.514;-0.178;2023-11-21T03:48:39;41.85;;;27.23;;
48524;SDS011;34316;51.514;-0.178;2023-11-21T03:50:41;42.67;;;27.35;;
48524;SDS011;34316;51.514;-0.178;2023-11-21T03:52:43;46.17;;;26.85;;
48524;SDS011;34316;51.514;-0.178;2023-11-21T03:54:45;38.78;;;24.50;;
48524;SDS011;34316;51.514;-0.178;2023-11-21T03:56:47;37.67;;;24.10;;
48524;SDS011;34316;51.514;-0.178;2023-11-21T03:58:49;40.85;;;24.52;;
48524;SDS011;34316;51.514;-0.178;2023-11-21T04:00:51;41.72;;;25.42;;
48524;SDS011;34316;51.514;-0.178;2023-11-21T04:02:53;45.35;;;27.35;;
48524;SDS011;34316;51.514;-0.178;2023-11-21T04:04:55;42.38;;;27.95;;
48524;SDS011;34316;51.514;-0.178;2023-11-21T04:06:58;37.20;;;26.40;;
48524;SDS011;34316;51.514;-0.178;2023-11-21T04:08:59;44.85;;;27.55;;
48524;SDS011;34316;51.514;-0.178;2023-11-21T04:11:01;40.38;;;26.30;;
48524;SDS011;34316;51.514;-0.178;2023-11-21T04:13:03;40.47;;;26.45;;
48524;SDS011;34316;51.514;-0.178;2023-11-21T04:15:06;39.20;;;26.38;;
48524;SDS011;34316;51.514;-0.178;2023-11-21T04:17:10;38.63;;;26.45;;
48524;SDS011;34316;51.514;-0.178;2023-11-21T04:19:12;37.80;;;24.77;;
48524;SDS011;34316;51.514;-0.178;2023-11-21T04:21:17;40.42;;;25.33;;
48524;SDS011;34316;51.514;-0.178;2023-11-21T04:23:18;40.15;;;27.75;;
48524;SDS011;34316;51.514;-0.178;2023-11-21T04:25:20;42.65;;;27.80;;
48524;SDS011;34316;51.514;-0.178;2023-11-21T04:27:24;39.50;;;26.80;;
48524;SDS011;34316;51.514;-0.178;2023-11-21T04:29:26;36.47;;;27.02;;
48524;SDS011;34316;51.514;-0.178;2023-11-21T04:31:28;38.67;;;27.17;;
48524;SDS011;34316;51.514;-0.178;2023-11-21T04:33:30;48.60;;;27.13;;
48524;SDS011;34316;51.514;-0.178;2023-11-21T04:35:32;40.17;;;27.65;;
48524;SDS011;34316;51.514;-0.178;2023-11-21T04:37:34;39.05;;;26.92;;
48524;SDS011;34316;51.514;-0.178;2023-11-21T04:39:36;43.50;;;26.38;;
48524;SDS011;34316;51.514;-0.178;2023-11-21T04:41:38;35.75;;;24.65;;
48524;SDS011;34316;51.514;-0.178;2023-11-21T04:43:42;36.60;;;26.50;;
48524;SDS011;34316;51.514;-0.178;2023-11-21T04:45:44;36.85;;;26.77;;
48524;SDS011;34316;51.514;-0.178;2023-11-21T04:47:47;33.40;;;21.95;;
48524;SDS011;34316;51.514;-0.178;2023-11-21T04:49:48;33.75;;;21.48;;
48524;SDS011;34316;51.514;-0.178;2023-11-21T04:51:50;31.52;;;22.08;;
48524;SDS011;34316;51.514;-0.178;2023-11-21T04:53:52;37.85;;;23.15;;
48524;SDS011;34316;51.514;-0.178;2023-11-21T04:55:54;33.58;;;22.63;;
48524;SDS011;34316;51.514;-0.178;2023-11-21T04:57:56;31.75;;;20.90;;
48524;SDS011;34316;51.514;-0.178;2023-11-21T04:59:57;31.00;;;21.33;;
48524;SDS011;34316;51.514;-0.178;2023-11-21T05:01:59;34.53;;;22.67;;
48524;SDS011;34316;51.514;-0.178;2023-11-21T05:04:04;36.17;;;23.88;;
48524;SDS011;34316;51.514;-0.178;2023-11-21T05:06:10;36.08;;;24.25;;
48524;SDS011;34316;51.514;-0.178;2023-11-21T05:08:12;34.88;;;23.13;;
48524;SDS011;34316;51.514;-0.178;2023-11-21T05:10:14;36.40;;;24.85;;
48524;SDS011;34316;51.514;-0.178;2023-11-21T05:12:16;42.47;;;24.52;;
48524;SDS011;34316;51.514;-0.178;2023-11-21T05:14:18;38.67;;;24.48;;
48524;SDS011;34316;51.514;-0.178;2023-11-21T05:16:20;40.03;;;24.77;;
48524;SDS011;34316;51.514;-0.178;2023-11-21T05:18:23;41.40;;;25.83;;
48524;SDS011;34316;51.514;-0.178;2023-11-21T05:20:26;36.42;;;23.50;;
48524;SDS011;34316;51.514;-0.178;2023-11-21T05:22:29;39.83;;;24.48;;
48524;SDS011;34316;51.514;-0.178;2023-11-21T05:24:31;39.88;;;24.27;;
48524;SDS011;34316;51.514;-0.178;2023-11-21T05:26:33;37.63;;;23.75;;
48524;SDS011;34316;51.514;-0.178;2023-11-21T05:28:35;39.17;;;25.38;;
48524;SDS011;34316;51.514;-0.178;2023-11-21T05:30:38;36.13;;;24.63;;
48524;SDS011;34316;51.514;-0.178;2023-11-21T05:32:40;41.58;;;26.08;;
48524;SDS011;34316;51.514;-0.178;2023-11-21T05:34:45;37.75;;;25.60;;
48524;SDS011;34316;51.514;-0.178;2023-11-21T05:36:47;42.88;;;27.63;;
48524;SDS011;34316;51.514;-0.178;2023-11-21T05:38:49;37.90;;;26.73;;
48524;SDS011;34316;51.514;-0.178;2023-11-21T05:40:50;49.97;;;27.60;;
48524;SDS011;34316;51.514;-0.178;2023-11-21T05:42:52;45.65;;;27.90;;
48524;SDS011;34316;51.514;-0.178;2023-11-21T05:44:54;46.08;;;28.63;;
48524;SDS011;34316;51.514;-0.178;2023-11-21T05:46:56;46.30;;;27.27;;
48524;SDS011;34316;51.514;-0.178;2023-11-21T05:49:00;38.30;;;26.38;;
48524;SDS011;34316;51.514;-0.178;2023-11-21T05:51:03;45.80;;;27.38;;
48524;SDS011;34316;51.514;-0.178;2023-11-21T05:53:08;44.13;;;27.70;;
48524;SDS011;34316;51.514;-0.178;2023-11-21T05:55:11;42.22;;;26.02;;
48524;SDS011;34316;51.514;-0.178;2023-11-21T05:57:14;39.08;;;25.70;;
48524;SDS011;34316;51.514;-0.178;2023-11-21T05:59:16;48.70;;;26.85;;
48524;SDS011;34316;51.514;-0.178;2023-11-21T06:01:23;51.80;;;28.65;;
48524;SDS011;34316;51.514;-0.178;2023-11-21T06:03:25;45.38;;;26.73;;
48524;SDS011;34316;51.514;-0.178;2023-11-21T06:05:27;41.35;;;26.55;;
48524;SDS011;34316;51.514;-0.178;2023-11-21T06:07:29;40.67;;;27.60;;
48524;SDS011;34316;51.514;-0.178;2023-11-21T06:09:34;36.38;;;24.08;;
48524;SDS011;34316;51.514;-0.178;2023-11-21T06:11:37;37.22;;;23.23;;
48524;SDS011;34316;51.514;-0.178;2023-11-21T06:13:38;29.52;;;22.45;;
48524;SDS011;34316;51.514;-0.178;2023-11-21T06:15:40;35.45;;;23.80;;
48524;SDS011;34316;51.514;-0.178;2023-11-21T06:17:42;41.00;;;23.92;;
48524;SDS011;34316;51.514;-0.178;2023-11-21T06:19:46;32.15;;;21.98;;
48524;SDS011;34316;51.514;-0.178;2023-11-21T06:21:47;31.80;;;22.77;;
48524;SDS011;34316;51.514;-0.178;2023-11-21T06:23:49;37.70;;;22.60;;
48524;SDS011;34316;51.514;-0.178;2023-11-21T06:25:54;45.33;;;24.10;;
48524;SDS011;34316;51.514;-0.178;2023-11-21T06:27:56;35.85;;;21.65;;
48524;SDS011;34316;51.514;-0.178;2023-11-21T06:29:58;50.33;;;24.17;;
48524;SDS011;34316;51.514;-0.178;2023-11-21T06:31:59;31.88;;;23.42;;
48524;SDS011;34316;51.514;-0.178;2023-11-21T06:34:01;39.65;;;23.90;;
48524;SDS011;34316;51.514;-0.178;2023-11-21T06:36:05;35.83;;;23.50;;
48524;SDS011;34316;51.514;-0.178;2023-11-21T06:38:07;40.95;;;25.80;;
48524;SDS011;34316;51.514;-0.178;2023-11-21T06:40:10;49.95;;;31.30;;
48524;SDS011;34316;51.514;-0.178;2023-11-21T06:42:16;54.45;;;38.08;;
48524;SDS011;34316;51.514;-0.178;2023-11-21T06:44:18;51.25;;;37.05;;
48524;SDS011;34316;51.514;-0.178;2023-11-21T06:46:21;48.42;;;33.13;;
48524;SDS011;34316;51.514;-0.178;2023-11-21T06:48:23;51.28;;;35.45;;
48524;SDS011;34316;51.514;-0.178;2023-11-21T06:50:25;60.90;;;38.63;;
48524;SDS011;34316;51.514;-0.178;2023-11-21T06:52:27;61.50;;;36.58;;
48524;SDS011;34316;51.514;-0.178;2023-11-21T06:54:30;54.60;;;36.92;;
48524;SDS011;34316;51.514;-0.178;2023-11-21T06:58:34;57.63;;;37.42;;
48524;SDS011;34316;51.514;-0.178;2023-11-21T07:00:36;66.88;;;40.22;;
48524;SDS011;34316;51.514;-0.178;2023-11-21T07:02:38;61.17;;;37.63;;
48524;SDS011;34316;51.514;-0.178;2023-11-21T07:04:40;57.22;;;36.50;;
48524;SDS011;34316;51.514;-0.178;2023-11-21T07:06:42;54.08;;;38.13;;
48524;SDS011;34316;51.514;-0.178;2023-11-21T07:08:44;58.70;;;37.78;;
48524;SDS011;34316;51.514;-0.178;2023-11-21T07:10:46;54.97;;;35.97;;
48524;SDS011;34316;51.514;-0.178;2023-11-21T07:12:48;52.33;;;33.60;;
48524;SDS011;34316;51.514;-0.178;2023-11-21T07:14:51;54.83;;;33.22;;
48524;SDS011;34316;51.514;-0.178;2023-11-21T07:16:53;51.65;;;34.03;;
48524;SDS011;34316;51.514;-0.178;2023-11-21T07:18:55;51.97;;;32.80;;
48524;SDS011;34316;51.514;-0.178;2023-11-21T07:20:56;49.53;;;34.10;;
48524;SDS011;34316;51.514;-0.178;2023-11-21T07:23:00;53.63;;;32.97;;
48524;SDS011;34316;51.514;-0.178;2023-11-21T07:25:02;50.60;;;33.25;;
48524;SDS011;34316;51.514;-0.178;2023-11-21T07:27:04;46.65;;;32.38;;
48524;SDS011;34316;51.514;-0.178;2023-11-21T07:29:08;51.25;;;32.20;;
48524;SDS011;34316;51.514;-0.178;2023-11-21T07:31:10;56.53;;;33.17;;
48524;SDS011;34316;51.514;-0.178;2023-11-21T07:33:11;48.15;;;32.53;;
48524;SDS011;34316;51.514;-0.178;2023-11-21T07:35:13;58.17;;;31.30;;
48524;SDS011;34316;51.514;-0.178;2023-11-21T07:37:15;52.55;;;32.03;;
48524;SDS011;34316;51.514;-0.178;2023-11-21T07:39:17;50.97;;;31.92;;
48524;SDS011;34316;51.514;-0.178;2023-11-21T07:41:18;55.05;;;33.00;;
48524;SDS011;34316;51.514;-0.178;2023-11-21T07:43:31;48.60;;;30.90;;
48524;SDS011;34316;51.514;-0.178;2023-11-21T07:45:36;53.20;;;30.10;;
48524;SDS011;34316;51.514;-0.178;2023-11-21T07:47:38;44.25;;;30.30;;
48524;SDS011;34316;51.514;-0.178;2023-11-21T07:49:41;47.53;;;30.90;;
48524;SDS011;34316;51.514;-0.178;2023-11-21T07:51:45;45.58;;;29.30;;
48524;SDS011;34316;51.514;-0.178;2023-11-21T07:53:47;43.33;;;28.17;;
48524;SDS011;34316;51.514;-0.178;2023-11-21T07:55:49;39.13;;;27.95;;
48524;SDS011;34316;51.514;-0.178;2023-11-21T07:57:50;49.67;;;29.63;;
48524;SDS011;34316;51.514;-0.178;2023-11-21T07:59:52;44.63;;;30.60;;
48524;SDS011;34316;51.514;-0.178;2023-11-21T08:01:56;48.10;;;30.13;;
48524;SDS011;34316;51.514;-0.178;2023-11-21T08:03:58;46.45;;;29.13;;
48524;SDS011;34316;51.514;-0.178;2023-11-21T08:06:03;47.47;;;28.23;;
48524;SDS011;34316;51.514;-0.178;2023-11-21T08:08:07;44.45;;;28.45;;
48524;SDS011;34316;51.514;-0.178;2023-11-21T08:10:09;40.80;;;28.23;;
48524;SDS011;34316;51.514;-0.178;2023-11-21T08:12:11;43.83;;;28.83;;
48524;SDS011;34316;51.514;-0.178;2023-11-21T08:14:14;39.75;;;24.60;;
48524;SDS011;34316;51.514;-0.178;2023-11-21T08:16:16;45.33;;;27.92;;
48524;SDS011;34316;51.514;-0.178;2023-11-21T08:18:18;48.22;;;28.02;;
48524;SDS011;34316;51.514;-0.178;2023-11-21T08:20:20;153.02;;;34.33;;
48524;SDS011;34316;51.514;-0.178;2023-11-21T08:22:24;65.07;;;30.48;;
48524;SDS011;34316;51.514;-0.178;2023-11-21T08:24:26;55.78;;;29.25;;
48524;SDS011;34316;51.514;-0.178;2023-11-21T08:26:29;45.70;;;29.73;;
48524;SDS011;34316;51.514;-0.178;2023-11-21T08:28:30;45.58;;;29.58;;
48524;SDS011;34316;51.514;-0.178;2023-11-21T08:30:32;42.95;;;28.25;;
48524;SDS011;34316;51.514;-0.178;2023-11-21T08:32:36;48.72;;;28.83;;
48524;SDS011;34316;51.514;-0.178;2023-11-21T08:34:38;51.63;;;28.67;;
48524;SDS011;34316;51.514;-0.178;2023-11-21T08:36:42;42.78;;;24.85;;
48524;SDS011;34316;51.514;-0.178;2023-11-21T08:38:44;47.53;;;25.55;;
48524;SDS011;34316;51.514;-0.178;2023-11-21T08:40:47;37.47;;;25.13;;
48524;SDS011;34316;51.514;-0.178;2023-11-21T08:42:49;50.47;;;27.02;;
48524;SDS011;34316;51.514;-0.178;2023-11-21T08:44:53;97.75;;;33.22;;
48524;SDS011;34316;51.514;-0.178;2023-11-21T08:46:55;58.08;;;27.65;;
48524;SDS011;34316;51.514;-0.178;2023-11-21T08:48:56;39.05;;;22.15;;
48524;SDS011;34316;51.514;-0.178;2023-11-21T08:50:58;47.25;;;21.30;;
48524;SDS011;34316;51.514;-0.178;2023-11-21T08:53:01;238.32;;;35.67;;
48524;SDS011;34316;51.514;-0.178;2023-11-21T08:55:03;96.40;;;30.25;;
48524;SDS011;34316;51.514;-0.178;2023-11-21T08:57:09;34.33;;;19.33;;
48524;SDS011;34316;51.514;-0.178;2023-11-21T08:59:11;28.15;;;17.90;;
48524;SDS011;34316;51.514;-0.178;2023-11-21T09:01:16;53.90;;;28.13;;
48524;SDS011;34316;51.514;-0.178;2023-11-21T09:03:18;55.25;;;24.08;;
48524;SDS011;34316;51.514;-0.178;2023-11-21T09:05:20;33.60;;;20.27;;
48524;SDS011;34316;51.514;-0.178;2023-11-21T09:07:22;43.95;;;26.20;;
48524;SDS011;34316;51.514;-0.178;2023-11-21T09:09:24;41.33;;;26.10;;
48524;SDS011;34316;51.514;-0.178;2023-11-21T09:11:26;42.53;;;24.90;;
48524;SDS011;34316;51.514;-0.178;2023-11-21T09:13:34;41.00;;;22.88;;
48524;SDS011;34316;51.514;-0.178;2023-11-21T09:15:36;46.75;;;23.50;;
48524;SDS011;34316;51.514;-0.178;2023-11-21T09:17:38;46.15;;;22.40;;
48524;SDS011;34316;51.514;-0.178;2023-11-21T09:19:42;34.38;;;21.83;;
48524;SDS011;34316;51.514;-0.178;2023-11-21T09:21:46;30.90;;;18.88;;
48524;SDS011;34316;51.514;-0.178;2023-11-21T09:23:48;27.25;;;18.00;;
48524;SDS011;34316;51.514;-0.178;2023-11-21T09:25:50;25.80;;;17.95;;
48524;SDS011;34316;51.514;-0.178;2023-11-21T09:27:53;25.47;;;17.13;;
48524;SDS011;34316;51.514;-0.178;2023-11-21T09:29:55;25.80;;;16.80;;
48524;SDS011;34316;51.514;-0.178;2023-11-21T09:31:57;25.30;;;16.83;;
48524;SDS011;34316;51.514;-0.178;2023-11-21T09:34:00;27.25;;;16.15;;
48524;SDS011;34316;51.514;-0.178;2023-11-21T09:36:04;26.40;;;17.20;;
48524;SDS011;34316;51.514;-0.178;2023-11-21T09:38:06;27.90;;;17.52;;
48524;SDS011;34316;51.514;-0.178;2023-11-21T09:40:12;34.78;;;18.27;;
48524;SDS011;34316;51.514;-0.178;2023-11-21T09:42:17;56.92;;;20.38;;
48524;SDS011;34316;51.514;-0.178;2023-11-21T09:44:35;40.58;;;18.90;;
48524;SDS011;34316;51.514;-0.178;2023-11-21T09:46:42;26.08;;;16.80;;
48524;SDS011;34316;51.514;-0.178;2023-11-21T09:48:44;34.90;;;18.23;;
48524;SDS011;34316;51.514;-0.178;2023-11-21T09:50:48;33.58;;;16.40;;
48524;SDS011;34316;51.514;-0.178;2023-11-21T09:55:26;25.40;;;17.40;;
48524;SDS011;34316;51.514;-0.178;2023-11-21T09:57:30;21.80;;;15.73;;
48524;SDS011;34316;51.514;-0.178;2023-11-21T09:59:32;49.28;;;16.92;;
48524;SDS011;34316;51.514;-0.178;2023-11-21T10:01:35;29.50;;;18.08;;
48524;SDS011;34316;51.514;-0.178;2023-11-21T10:05:44;26.75;;;17.27;;
48524;SDS011;34316;51.514;-0.178;2023-11-21T10:07:48;27.25;;;17.10;;
48524;SDS011;34316;51.514;-0.178;2023-11-21T10:09:51;25.20;;;16.83;;
48524;SDS011;34316;51.514;-0.178;2023-11-21T10:11:54;32.05;;;16.88;;
48524;SDS011;34316;51.514;-0.178;2023-11-21T10:13:58;28.30;;;17.10;;
48524;SDS011;34316;51.514;-0.178;2023-11-21T10:16:01;29.00;;;17.73;;
48524;SDS011;34316;51.514;-0.178;2023-11-21T10:18:07;26.98;;;18.13;;
48524;SDS011;34316;51.514;-0.178;2023-11-21T10:20:11;27.08;;;18.70;;
48524;SDS011;34316;51.514;-0.178;2023-11-21T10:22:15;25.35;;;18.23;;
48524;SDS011;34316;51.514;-0.178;2023-11-21T10:24:17;26.33;;;16.92;;
48524;SDS011;34316;51.514;-0.178;2023-11-21T10:26:19;32.60;;;17.90;;
48524;SDS011;34316;51.514;-0.178;2023-11-21T10:28:34;26.60;;;17.42;;
48524;SDS011;34316;51.514;-0.178;2023-11-21T10:30:38;36.05;;;20.48;;
48524;SDS011;34316;51.514;-0.178;2023-11-21T10:32:41;37.63;;;21.45;;
48524;SDS011;34316;51.514;-0.178;2023-11-21T10:34:55;31.80;;;21.95;;
48524;SDS011;34316;51.514;-0.178;2023-11-21T10:36:57;25.45;;;18.92;;
48524;SDS011;34316;51.514;-0.178;2023-11-21T10:38:59;33.63;;;19.27;;
48524;SDS011;34316;51.514;-0.178;2023-11-21T10:41:01;31.83;;;21.10;;
48524;SDS011;34316;51.514;-0.178;2023-11-21T10:43:06;35.95;;;21.80;;
48524;SDS011;34316;51.514;-0.178;2023-11-21T10:45:12;35.47;;;22.95;;
48524;SDS011;34316;51.514;-0.178;2023-11-21T10:47:15;38.05;;;23.58;;
48524;SDS011;34316;51.514;-0.178;2023-11-21T10:49:18;38.88;;;23.65;;
48524;SDS011;34316;51.514;-0.178;2023-11-21T10:51:20;35.08;;;22.75;;
48524;SDS011;34316;51.514;-0.178;2023-11-21T10:53:22;31.02;;;22.23;;
48524;SDS011;34316;51.514;-0.178;2023-11-21T10:55:25;31.00;;;22.20;;
48524;SDS011;34316;51.514;-0.178;2023-11-21T10:57:28;36.47;;;23.08;;
48524;SDS011;34316;51.514;-0.178;2023-11-21T10:59:30;34.28;;;21.58;;
48524;SDS011;34316;51.514;-0.178;2023-11-21T11:01:34;30.70;;;22.60;;
48524;SDS011;34316;51.514;-0.178;2023-11-21T11:03:36;29.05;;;19.40;;
48524;SDS011;34316;51.514;-0.178;2023-11-21T11:05:38;34.35;;;20.52;;
48524;SDS011;34316;51.514;-0.178;2023-11-21T11:07:40;29.90;;;19.98;;
48524;SDS011;34316;51.514;-0.178;2023-11-21T11:09:43;31.88;;;18.23;;
48524;SDS011;34316;51.514;-0.178;2023-11-21T11:11:46;28.08;;;18.75;;
48524;SDS011;34316;51.514;-0.178;2023-11-21T11:13:48;23.63;;;17.63;;
48524;SDS011;34316;51.514;-0.178;2023-11-21T11:15:51;34.00;;;18.60;;
48524;SDS011;34316;51.514;-0.178;2023-11-21T11:18:01;24.00;;;16.58;;
48524;SDS011;34316;51.514;-0.178;2023-11-21T11:20:06;32.13;;;19.92;;
48524;SDS011;34316;51.514;-0.178;2023-11-21T11:22:29;31.25;;;20.92;;
48524;SDS011;34316;51.514;-0.178;2023-11-21T11:27:20;36.50;;;23.73;;
48524;SDS011;34316;51.514;-0.178;2023-11-21T11:29:42;37.30;;;23.23;;
48524;SDS011;34316;51.514;-0.178;2023-11-21T11:34:23;35.53;;;21.80;;
48524;SDS011;34316;51.514;-0.178;2023-11-21T11:36:34;34.63;;;22.83;;
48524;SDS011;34316;51.514;-0.178;2023-11-21T11:38:38;34.95;;;22.65;;
48524;SDS011;34316;51.514;-0.178;2023-11-21T11:40:40;32.78;;;20.17;;
48524;SDS011;34316;51.514;-0.178;2023-11-21T11:42:56;37.13;;;23.07;;
48524;SDS011;34316;51.514;-0.178;2023-11-21T11:45:01;38.50;;;24.35;;
48524;SDS011;34316;51.514;-0.178;2023-11-21T11:47:12;34.50;;;22.75;;
48524;SDS011;34316;51.514;-0.178;2023-11-21T11:49:28;32.63;;;22.00;;
48524;SDS011;34316;51.514;-0.178;2023-11-21T11:51:30;26.83;;;20.38;;
48524;SDS011;34316;51.514;-0.178;2023-11-21T11:53:36;26.98;;;18.83;;
48524;SDS011;34316;51.514;-0.178;2023-11-21T11:55:41;33.72;;;20.40;;
48524;SDS011;34316;51.514;-0.178;2023-11-21T11:57:43;37.80;;;21.65;;
48524;SDS011;34316;51.514;-0.178;2023-11-21T12:02:11;32.05;;;20.88;;
48524;SDS011;34316;51.514;-0.178;2023-11-21T12:06:16;32.75;;;20.83;;
48524;SDS011;34316;51.514;-0.178;2023-11-21T12:08:20;36.92;;;20.77;;